sensor_id;sensor_type;location;lat;lon;timestamp;temperature;humidity
19755;DHT22;10036;47.812;9.274;2022-07-18T00:00:32;19.30;85.50
19755;DHT22;10036;47.812;9.274;2022-07-18T00:02:59;19.30;85.60
19755;DHT22;10036;47.812;9.274;2022-07-18T00:05:26;19.30;85.80
19755;DHT22;10036;47.812;9.274;2022-07-18T00:07:53;19.10;85.80
19755;DHT22;10036;47.812;9.274;2022-07-18T00:10:20;19.10;86.30
19755;DHT22;10036;47.812;9.274;2022-07-18T00:12:47;19.00;86.40
19755;DHT22;10036;47.812;9.274;2022-07-18T00:15:14;19.00;86.70
19755;DHT22;10036;47.812;9.274;2022-07-18T00:17:42;18.90;86.80
19755;DHT22;10036;47.812;9.274;2022-07-18T00:20:10;19.00;87.20
19755;DHT22;10036;47.812;9.274;2022-07-18T00:22:38;19.00;87.40
19755;DHT22;10036;47.812;9.274;2022-07-18T00:25:06;19.00;87.40
19755;DHT22;10036;47.812;9.274;2022-07-18T00:27:33;19.10;87.20
19755;DHT22;10036;47.812;9.274;2022-07-18T00:29:59;18.90;87.70
19755;DHT22;10036;47.812;9.274;2022-07-18T00:32:26;18.90;88.60
19755;DHT22;10036;47.812;9.274;2022-07-18T00:34:55;18.80;89.00
19755;DHT22;10036;47.812;9.274;2022-07-18T00:37:21;18.70;90.10
19755;DHT22;10036;47.812;9.274;2022-07-18T00:39:48;18.40;90.30
19755;DHT22;10036;47.812;9.274;2022-07-18T00:42:15;18.40;90.50
19755;DHT22;10036;47.812;9.274;2022-07-18T00:44:42;18.50;90.70
19755;DHT22;10036;47.812;9.274;2022-07-18T00:47:09;18.50;90.80
19755;DHT22;10036;47.812;9.274;2022-07-18T00:49:36;18.50;90.60
19755;DHT22;10036;47.812;9.274;2022-07-18T00:52:05;18.30;91.20
19755;DHT22;10036;47.812;9.274;2022-07-18T00:54:32;18.20;91.60
19755;DHT22;10036;47.812;9.274;2022-07-18T00:56:59;18.20;91.50
19755;DHT22;10036;47.812;9.274;2022-07-18T00:59:27;18.40;91.20
19755;DHT22;10036;47.812;9.274;2022-07-18T01:02:08;18.30;91.10
19755;DHT22;10036;47.812;9.274;2022-07-18T01:04:35;18.30;91.30
19755;DHT22;10036;47.812;9.274;2022-07-18T01:07:02;18.30;91.20
19755;DHT22;10036;47.812;9.274;2022-07-18T01:09:30;18.30;91.50
19755;DHT22;10036;47.812;9.274;2022-07-18T01:11:57;18.20;92.00
19755;DHT22;10036;47.812;9.274;2022-07-18T01:14:24;17.90;92.30
19755;DHT22;10036;47.812;9.274;2022-07-18T01:16:52;17.70;92.90
19755;DHT22;10036;47.812;9.274;2022-07-18T01:19:19;17.60;93.30
19755;DHT22;10036;47.812;9.274;2022-07-18T01:21:47;17.60;93.10
19755;DHT22;10036;47.812;9.274;2022-07-18T01:24:14;17.90;92.90
19755;DHT22;10036;47.812;9.274;2022-07-18T01:26:41;18.10;92.50
19755;DHT22;10036;47.812;9.274;2022-07-18T01:29:08;18.10;92.10
19755;DHT22;10036;47.812;9.274;2022-07-18T01:31:35;18.30;92.10
19755;DHT22;10036;47.812;9.274;2022-07-18T01:34:02;18.30;91.60
19755;DHT22;10036;47.812;9.274;2022-07-18T01:36:29;18.40;91.50
19755;DHT22;10036;47.812;9.274;2022-07-18T01:38:58;18.30;91.90
19755;DHT22;10036;47.812;9.274;2022-07-18T01:41:25;18.10;92.20
19755;DHT22;10036;47.812;9.274;2022-07-18T01:43:52;17.90;92.80
19755;DHT22;10036;47.812;9.274;2022-07-18T01:46:18;17.80;93.00
19755;DHT22;10036;47.812;9.274;2022-07-18T01:48:45;17.80;93.50
19755;DHT22;10036;47.812;9.274;2022-07-18T01:51:12;17.70;93.40
19755;DHT22;10036;47.812;9.274;2022-07-18T01:53:40;17.60;93.60
19755;DHT22;10036;47.812;9.274;2022-07-18T01:56:12;17.50;93.60
19755;DHT22;10036;47.812;9.274;2022-07-18T01:58:40;17.20;94.40
19755;DHT22;10036;47.812;9.274;2022-07-18T02:01:06;17.00;94.80
19755;DHT22;10036;47.812;9.274;2022-07-18T02:03:33;16.80;94.60
19755;DHT22;10036;47.812;9.274;2022-07-18T02:06:00;16.90;94.40
19755;DHT22;10036;47.812;9.274;2022-07-18T02:08:27;16.90;94.30
19755;DHT22;10036;47.812;9.274;2022-07-18T02:10:54;17.40;94.10
19755;DHT22;10036;47.812;9.274;2022-07-18T02:13:23;17.50;93.70
19755;DHT22;10036;47.812;9.274;2022-07-18T02:15:49;17.40;93.80
19755;DHT22;10036;47.812;9.274;2022-07-18T02:18:20;17.20;94.40
19755;DHT22;10036;47.812;9.274;2022-07-18T02:20:47;17.20;94.60
19755;DHT22;10036;47.812;9.274;2022-07-18T02:23:14;17.30;94.30
19755;DHT22;10036;47.812;9.274;2022-07-18T02:25:41;17.30;94.20
19755;DHT22;10036;47.812;9.274;2022-07-18T02:28:08;17.10;94.50
19755;DHT22;10036;47.812;9.274;2022-07-18T02:30:36;17.20;94.70
19755;DHT22;10036;47.812;9.274;2022-07-18T02:33:03;17.00;95.10
19755;DHT22;10036;47.812;9.274;2022-07-18T02:35:30;17.00;95.40
19755;DHT22;10036;47.812;9.274;2022-07-18T02:37:57;16.80;95.70
19755;DHT22;10036;47.812;9.274;2022-07-18T02:40:24;16.70;95.80
19755;DHT22;10036;47.812;9.274;2022-07-18T02:42:51;16.60;95.90
19755;DHT22;10036;47.812;9.274;2022-07-18T02:45:18;16.90;95.40
19755;DHT22;10036;47.812;9.274;2022-07-18T02:47:46;17.00;95.10
19755;DHT22;10036;47.812;9.274;2022-07-18T02:50:13;16.90;95.20
19755;DHT22;10036;47.812;9.274;2022-07-18T02:52:41;16.90;95.20
19755;DHT22;10036;47.812;9.274;2022-07-18T02:55:09;16.80;95.80
19755;DHT22;10036;47.812;9.274;2022-07-18T02:57:36;16.60;95.90
19755;DHT22;10036;47.812;9.274;2022-07-18T03:00:04;16.80;95.70
19755;DHT22;10036;47.812;9.274;2022-07-18T03:02:31;16.70;96.00
19755;DHT22;10036;47.812;9.274;2022-07-18T03:05:00;16.70;96.20
19755;DHT22;10036;47.812;9.274;2022-07-18T03:07:27;16.60;96.40
19755;DHT22;10036;47.812;9.274;2022-07-18T03:09:54;16.70;96.10
19755;DHT22;10036;47.812;9.274;2022-07-18T03:12:21;16.40;96.70
19755;DHT22;10036;47.812;9.274;2022-07-18T03:14:48;16.30;97.00
19755;DHT22;10036;47.812;9.274;2022-07-18T03:17:15;16.40;96.60
19755;DHT22;10036;47.812;9.274;2022-07-18T03:19:43;16.40;96.70
19755;DHT22;10036;47.812;9.274;2022-07-18T03:22:11;16.20;97.50
19755;DHT22;10036;47.812;9.274;2022-07-18T03:24:38;16.20;97.50
19755;DHT22;10036;47.812;9.274;2022-07-18T03:27:05;16.30;96.90
19755;DHT22;10036;47.812;9.274;2022-07-18T03:29:32;16.40;96.70
19755;DHT22;10036;47.812;9.274;2022-07-18T03:31:59;16.20;97.40
19755;DHT22;10036;47.812;9.274;2022-07-18T03:34:25;16.00;97.40
19755;DHT22;10036;47.812;9.274;2022-07-18T03:36:52;15.90;97.40
19755;DHT22;10036;47.812;9.274;2022-07-18T03:39:20;15.70;98.20
19755;DHT22;10036;47.812;9.274;2022-07-18T03:41:47;15.50;98.50
19755;DHT22;10036;47.812;9.274;2022-07-18T03:44:14;15.40;98.60
19755;DHT22;10036;47.812;9.274;2022-07-18T03:46:41;15.40;98.60
19755;DHT22;10036;47.812;9.274;2022-07-18T03:49:08;15.60;98.40
19755;DHT22;10036;47.812;9.274;2022-07-18T03:51:35;15.50;98.60
19755;DHT22;10036;47.812;9.274;2022-07-18T03:54:02;15.40;99.10
19755;DHT22;10036;47.812;9.274;2022-07-18T03:56:30;15.50;99.00
19755;DHT22;10036;47.812;9.274;2022-07-18T03:58:57;15.60;98.60
19755;DHT22;10036;47.812;9.274;2022-07-18T04:01:24;16.00;98.10
19755;DHT22;10036;47.812;9.274;2022-07-18T04:03:51;16.10;97.70
19755;DHT22;10036;47.812;9.274;2022-07-18T04:06:18;16.20;97.20
19755;DHT22;10036;47.812;9.274;2022-07-18T04:08:45;16.40;97.10
19755;DHT22;10036;47.812;9.274;2022-07-18T04:11:12;16.50;97.00
19755;DHT22;10036;47.812;9.274;2022-07-18T04:13:40;16.60;96.80
19755;DHT22;10036;47.812;9.274;2022-07-18T04:16:07;16.60;96.80
19755;DHT22;10036;47.812;9.274;2022-07-18T04:18:34;16.60;96.80
19755;DHT22;10036;47.812;9.274;2022-07-18T04:21:01;16.60;96.80
19755;DHT22;10036;47.812;9.274;2022-07-18T04:23:27;16.60;97.20
19755;DHT22;10036;47.812;9.274;2022-07-18T04:25:54;16.40;97.40
19755;DHT22;10036;47.812;9.274;2022-07-18T04:28:21;16.40;97.20
19755;DHT22;10036;47.812;9.274;2022-07-18T04:30:49;16.30;97.30
19755;DHT22;10036;47.812;9.274;2022-07-18T04:33:16;16.10;97.40
19755;DHT22;10036;47.812;9.274;2022-07-18T04:35:43;16.20;97.50
19755;DHT22;10036;47.812;9.274;2022-07-18T04:38:10;16.20;97.60
19755;DHT22;10036;47.812;9.274;2022-07-18T04:40:37;16.20;97.60
19755;DHT22;10036;47.812;9.274;2022-07-18T04:43:05;16.40;97.20
19755;DHT22;10036;47.812;9.274;2022-07-18T04:45:33;16.40;96.90
19755;DHT22;10036;47.812;9.274;2022-07-18T04:48:02;16.50;96.70
19755;DHT22;10036;47.812;9.274;2022-07-18T04:50:29;16.50;96.70
19755;DHT22;10036;47.812;9.274;2022-07-18T04:52:57;16.60;96.80
19755;DHT22;10036;47.812;9.274;2022-07-18T04:55:25;16.60;96.80
19755;DHT22;10036;47.812;9.274;2022-07-18T04:57:54;16.60;97.00
19755;DHT22;10036;47.812;9.274;2022-07-18T05:00:24;16.60;97.00
19755;DHT22;10036;47.812;9.274;2022-07-18T05:02:53;16.60;97.20
19755;DHT22;10036;47.812;9.274;2022-07-18T05:05:22;16.60;96.90
19755;DHT22;10036;47.812;9.274;2022-07-18T05:11:11;16.60;97.20
19755;DHT22;10036;47.812;9.274;2022-07-18T05:13:38;16.60;97.10
19755;DHT22;10036;47.812;9.274;2022-07-18T05:16:06;16.70;97.00
19755;DHT22;10036;47.812;9.274;2022-07-18T05:18:33;16.80;97.00
19755;DHT22;10036;47.812;9.274;2022-07-18T05:21:01;16.90;97.10
19755;DHT22;10036;47.812;9.274;2022-07-18T05:23:28;16.80;97.00
19755;DHT22;10036;47.812;9.274;2022-07-18T05:25:55;16.80;96.80
19755;DHT22;10036;47.812;9.274;2022-07-18T05:28:22;16.90;97.00
19755;DHT22;10036;47.812;9.274;2022-07-18T05:30:49;17.00;97.00
19755;DHT22;10036;47.812;9.274;2022-07-18T05:33:16;17.00;97.40
19755;DHT22;10036;47.812;9.274;2022-07-18T05:35:43;17.00;97.30
19755;DHT22;10036;47.812;9.274;2022-07-18T05:38:12;17.10;97.30
19755;DHT22;10036;47.812;9.274;2022-07-18T05:40:38;17.20;97.30
19755;DHT22;10036;47.812;9.274;2022-07-18T05:43:05;17.30;97.30
19755;DHT22;10036;47.812;9.274;2022-07-18T05:45:33;17.20;97.00
19755;DHT22;10036;47.812;9.274;2022-07-18T05:48:00;17.30;97.30
19755;DHT22;10036;47.812;9.274;2022-07-18T05:50:27;17.40;97.60
19755;DHT22;10036;47.812;9.274;2022-07-18T05:52:54;17.30;97.50
19755;DHT22;10036;47.812;9.274;2022-07-18T05:55:22;17.40;97.30
19755;DHT22;10036;47.812;9.274;2022-07-18T05:57:49;17.40;97.10
19755;DHT22;10036;47.812;9.274;2022-07-18T06:00:17;17.40;97.20
19755;DHT22;10036;47.812;9.274;2022-07-18T06:02:47;17.40;97.00
19755;DHT22;10036;47.812;9.274;2022-07-18T06:05:14;17.50;97.00
19755;DHT22;10036;47.812;9.274;2022-07-18T06:07:41;17.60;97.50
19755;DHT22;10036;47.812;9.274;2022-07-18T06:10:09;17.60;96.30
19755;DHT22;10036;47.812;9.274;2022-07-18T06:12:38;17.70;96.50
19755;DHT22;10036;47.812;9.274;2022-07-18T06:15:06;17.70;96.60
19755;DHT22;10036;47.812;9.274;2022-07-18T06:17:33;17.80;97.50
19755;DHT22;10036;47.812;9.274;2022-07-18T06:20:00;17.80;97.50
19755;DHT22;10036;47.812;9.274;2022-07-18T06:22:29;17.90;97.10
19755;DHT22;10036;47.812;9.274;2022-07-18T06:24:56;18.00;95.90
19755;DHT22;10036;47.812;9.274;2022-07-18T06:27:23;18.10;96.00
19755;DHT22;10036;47.812;9.274;2022-07-18T06:29:51;18.10;95.80
19755;DHT22;10036;47.812;9.274;2022-07-18T06:32:18;18.20;97.10
19755;DHT22;10036;47.812;9.274;2022-07-18T06:34:45;18.30;97.50
19755;DHT22;10036;47.812;9.274;2022-07-18T06:37:12;18.40;97.70
19755;DHT22;10036;47.812;9.274;2022-07-18T06:39:39;18.50;97.90
19755;DHT22;10036;47.812;9.274;2022-07-18T06:42:06;18.70;97.20
19755;DHT22;10036;47.812;9.274;2022-07-18T06:44:33;18.80;96.60
19755;DHT22;10036;47.812;9.274;2022-07-18T06:47:01;18.90;96.00
19755;DHT22;10036;47.812;9.274;2022-07-18T06:49:28;18.90;95.00
19755;DHT22;10036;47.812;9.274;2022-07-18T06:51:55;19.00;94.90
19755;DHT22;10036;47.812;9.274;2022-07-18T06:54:21;19.00;95.20
19755;DHT22;10036;47.812;9.274;2022-07-18T06:56:53;19.10;95.70
19755;DHT22;10036;47.812;9.274;2022-07-18T06:59:20;19.20;95.40
19755;DHT22;10036;47.812;9.274;2022-07-18T07:01:47;19.30;95.90
19755;DHT22;10036;47.812;9.274;2022-07-18T07:04:15;19.40;95.70
19755;DHT22;10036;47.812;9.274;2022-07-18T07:06:42;19.50;95.30
19755;DHT22;10036;47.812;9.274;2022-07-18T07:09:09;19.60;95.80
19755;DHT22;10036;47.812;9.274;2022-07-18T07:11:36;19.70;95.70
19755;DHT22;10036;47.812;9.274;2022-07-18T07:14:03;19.80;95.60
19755;DHT22;10036;47.812;9.274;2022-07-18T07:16:30;19.90;95.70
19755;DHT22;10036;47.812;9.274;2022-07-18T07:18:57;20.00;95.00
19755;DHT22;10036;47.812;9.274;2022-07-18T07:21:25;20.10;95.10
19755;DHT22;10036;47.812;9.274;2022-07-18T07:23:52;20.20;95.20
19755;DHT22;10036;47.812;9.274;2022-07-18T07:26:19;20.30;95.10
19755;DHT22;10036;47.812;9.274;2022-07-18T07:28:46;20.40;95.40
19755;DHT22;10036;47.812;9.274;2022-07-18T07:31:13;20.50;95.90
19755;DHT22;10036;47.812;9.274;2022-07-18T07:33:40;20.50;95.10
19755;DHT22;10036;47.812;9.274;2022-07-18T07:36:09;20.60;95.20
19755;DHT22;10036;47.812;9.274;2022-07-18T07:38:38;20.70;95.20
19755;DHT22;10036;47.812;9.274;2022-07-18T07:41:05;20.80;95.40
19755;DHT22;10036;47.812;9.274;2022-07-18T07:43:32;20.80;95.80
19755;DHT22;10036;47.812;9.274;2022-07-18T07:46:01;20.90;95.50
19755;DHT22;10036;47.812;9.274;2022-07-18T07:48:28;21.10;95.40
19755;DHT22;10036;47.812;9.274;2022-07-18T07:50:55;21.10;95.20
19755;DHT22;10036;47.812;9.274;2022-07-18T07:53:23;21.20;95.40
19755;DHT22;10036;47.812;9.274;2022-07-18T07:55:51;21.30;95.50
19755;DHT22;10036;47.812;9.274;2022-07-18T07:58:18;21.30;95.60
19755;DHT22;10036;47.812;9.274;2022-07-18T08:00:45;21.40;95.80
19755;DHT22;10036;47.812;9.274;2022-07-18T08:03:12;21.60;94.70
19755;DHT22;10036;47.812;9.274;2022-07-18T08:05:44;21.60;94.40
19755;DHT22;10036;47.812;9.274;2022-07-18T08:08:12;21.70;95.00
19755;DHT22;10036;47.812;9.274;2022-07-18T08:10:39;21.80;95.40
19755;DHT22;10036;47.812;9.274;2022-07-18T08:13:07;21.90;95.20
19755;DHT22;10036;47.812;9.274;2022-07-18T08:15:34;22.00;95.30
19755;DHT22;10036;47.812;9.274;2022-07-18T08:18:02;22.00;95.30
19755;DHT22;10036;47.812;9.274;2022-07-18T08:20:29;22.10;95.00
19755;DHT22;10036;47.812;9.274;2022-07-18T08:22:58;22.10;95.00
19755;DHT22;10036;47.812;9.274;2022-07-18T08:25:26;22.20;95.20
19755;DHT22;10036;47.812;9.274;2022-07-18T08:27:54;22.30;94.70
19755;DHT22;10036;47.812;9.274;2022-07-18T08:30:22;22.40;94.90
19755;DHT22;10036;47.812;9.274;2022-07-18T08:32:49;22.50;96.00
19755;DHT22;10036;47.812;9.274;2022-07-18T08:35:16;22.60;96.70
19755;DHT22;10036;47.812;9.274;2022-07-18T08:37:43;22.80;95.40
19755;DHT22;10036;47.812;9.274;2022-07-18T08:40:11;22.90;96.00
19755;DHT22;10036;47.812;9.274;2022-07-18T08:42:38;23.00;96.00
19755;DHT22;10036;47.812;9.274;2022-07-18T08:45:06;23.10;95.70
19755;DHT22;10036;47.812;9.274;2022-07-18T08:47:35;23.20;95.70
19755;DHT22;10036;47.812;9.274;2022-07-18T08:50:03;23.20;95.50
19755;DHT22;10036;47.812;9.274;2022-07-18T08:52:30;23.30;95.40
19755;DHT22;10036;47.812;9.274;2022-07-18T08:54:58;23.40;95.90
19755;DHT22;10036;47.812;9.274;2022-07-18T08:57:25;23.50;96.40
19755;DHT22;10036;47.812;9.274;2022-07-18T08:59:54;23.50;97.00
19755;DHT22;10036;47.812;9.274;2022-07-18T09:02:24;23.60;96.10
19755;DHT22;10036;47.812;9.274;2022-07-18T09:04:53;23.70;96.10
19755;DHT22;10036;47.812;9.274;2022-07-18T09:07:25;23.90;96.60
19755;DHT22;10036;47.812;9.274;2022-07-18T09:09:54;24.10;96.10
19755;DHT22;10036;47.812;9.274;2022-07-18T09:12:22;24.20;96.80
19755;DHT22;10036;47.812;9.274;2022-07-18T09:14:48;24.30;96.50
19755;DHT22;10036;47.812;9.274;2022-07-18T09:17:17;24.50;95.00
19755;DHT22;10036;47.812;9.274;2022-07-18T09:19:58;24.60;95.40
19755;DHT22;10036;47.812;9.274;2022-07-18T09:22:28;24.70;95.40
19755;DHT22;10036;47.812;9.274;2022-07-18T09:25:06;24.80;95.00
19755;DHT22;10036;47.812;9.274;2022-07-18T09:27:36;24.80;95.20
19755;DHT22;10036;47.812;9.274;2022-07-18T09:30:27;24.90;95.90
19755;DHT22;10036;47.812;9.274;2022-07-18T09:33:05;25.10;95.50
19755;DHT22;10036;47.812;9.274;2022-07-18T09:35:36;25.20;94.10
19755;DHT22;10036;47.812;9.274;2022-07-18T09:38:05;25.20;95.10
19755;DHT22;10036;47.812;9.274;2022-07-18T09:40:34;25.30;94.40
19755;DHT22;10036;47.812;9.274;2022-07-18T09:43:03;25.30;94.60
19755;DHT22;10036;47.812;9.274;2022-07-18T09:45:32;25.40;95.30
19755;DHT22;10036;47.812;9.274;2022-07-18T09:48:00;25.70;94.30
19755;DHT22;10036;47.812;9.274;2022-07-18T09:50:29;25.70;94.20
19755;DHT22;10036;47.812;9.274;2022-07-18T09:53:12;25.80;93.00
19755;DHT22;10036;47.812;9.274;2022-07-18T09:55:44;25.80;92.70
19755;DHT22;10036;47.812;9.274;2022-07-18T09:58:12;25.80;93.30
19755;DHT22;10036;47.812;9.274;2022-07-18T10:00:41;25.80;93.50
19755;DHT22;10036;47.812;9.274;2022-07-18T10:03:08;26.00;92.60
19755;DHT22;10036;47.812;9.274;2022-07-18T10:05:36;26.00;93.10
19755;DHT22;10036;47.812;9.274;2022-07-18T10:08:07;26.20;90.10
19755;DHT22;10036;47.812;9.274;2022-07-18T10:10:36;26.20;90.10
19755;DHT22;10036;47.812;9.274;2022-07-18T10:13:04;26.40;90.40
19755;DHT22;10036;47.812;9.274;2022-07-18T10:15:33;26.50;90.90
19755;DHT22;10036;47.812;9.274;2022-07-18T10:18:01;26.60;90.80
19755;DHT22;10036;47.812;9.274;2022-07-18T10:20:33;26.80;86.90
19755;DHT22;10036;47.812;9.274;2022-07-18T10:23:08;26.80;85.30
19755;DHT22;10036;47.812;9.274;2022-07-18T10:25:36;26.90;81.70
19755;DHT22;10036;47.812;9.274;2022-07-18T10:28:08;27.00;85.30
19755;DHT22;10036;47.812;9.274;2022-07-18T10:30:43;27.20;86.90
19755;DHT22;10036;47.812;9.274;2022-07-18T10:33:39;27.40;87.50
19755;DHT22;10036;47.812;9.274;2022-07-18T10:36:08;27.80;85.00
19755;DHT22;10036;47.812;9.274;2022-07-18T10:38:37;28.20;83.30
19755;DHT22;10036;47.812;9.274;2022-07-18T10:41:13;28.80;78.90
19755;DHT22;10036;47.812;9.274;2022-07-18T10:43:44;29.10;79.80
19755;DHT22;10036;47.812;9.274;2022-07-18T10:46:11;29.70;79.80
19755;DHT22;10036;47.812;9.274;2022-07-18T10:48:55;30.40;79.00
19755;DHT22;10036;47.812;9.274;2022-07-18T10:51:30;31.00;77.30
19755;DHT22;10036;47.812;9.274;2022-07-18T10:54:13;31.80;73.70
19755;DHT22;10036;47.812;9.274;2022-07-18T10:57:09;32.00;71.10
19755;DHT22;10036;47.812;9.274;2022-07-18T11:00:00;32.50;75.60
19755;DHT22;10036;47.812;9.274;2022-07-18T11:02:36;32.80;67.20
19755;DHT22;10036;47.812;9.274;2022-07-18T11:05:33;33.00;66.20
19755;DHT22;10036;47.812;9.274;2022-07-18T11:08:17;32.90;64.80
19755;DHT22;10036;47.812;9.274;2022-07-18T11:11:08;33.00;64.00
19755;DHT22;10036;47.812;9.274;2022-07-18T11:13:37;32.70;63.70
19755;DHT22;10036;47.812;9.274;2022-07-18T11:16:08;32.80;64.30
19755;DHT22;10036;47.812;9.274;2022-07-18T11:21:35;32.60;64.80
19755;DHT22;10036;47.812;9.274;2022-07-18T11:24:04;32.50;64.00
19755;DHT22;10036;47.812;9.274;2022-07-18T11:26:34;32.00;61.20
19755;DHT22;10036;47.812;9.274;2022-07-18T11:29:03;31.70;62.60
19755;DHT22;10036;47.812;9.274;2022-07-18T11:31:31;31.60;62.70
19755;DHT22;10036;47.812;9.274;2022-07-18T11:33:59;31.50;64.60
19755;DHT22;10036;47.812;9.274;2022-07-18T11:36:29;31.60;64.90
19755;DHT22;10036;47.812;9.274;2022-07-18T11:38:59;31.50;63.40
19755;DHT22;10036;47.812;9.274;2022-07-18T11:41:26;31.30;64.10
19755;DHT22;10036;47.812;9.274;2022-07-18T11:43:55;31.30;64.20
19755;DHT22;10036;47.812;9.274;2022-07-18T11:46:23;31.10;61.60
19755;DHT22;10036;47.812;9.274;2022-07-18T11:48:58;31.00;65.20
19755;DHT22;10036;47.812;9.274;2022-07-18T11:51:32;31.10;65.10
19755;DHT22;10036;47.812;9.274;2022-07-18T11:53:59;31.10;64.10
19755;DHT22;10036;47.812;9.274;2022-07-18T11:56:26;31.00;61.20
19755;DHT22;10036;47.812;9.274;2022-07-18T11:58:55;30.90;60.20
19755;DHT22;10036;47.812;9.274;2022-07-18T12:01:30;30.80;62.50
19755;DHT22;10036;47.812;9.274;2022-07-18T12:03:57;30.80;62.20
19755;DHT22;10036;47.812;9.274;2022-07-18T12:06:25;30.70;61.80
19755;DHT22;10036;47.812;9.274;2022-07-18T12:08:53;30.70;61.20
19755;DHT22;10036;47.812;9.274;2022-07-18T12:11:26;30.70;60.10
19755;DHT22;10036;47.812;9.274;2022-07-18T12:13:57;30.60;62.70
19755;DHT22;10036;47.812;9.274;2022-07-18T12:16:30;30.60;61.10
19755;DHT22;10036;47.812;9.274;2022-07-18T12:18:58;30.70;62.00
19755;DHT22;10036;47.812;9.274;2022-07-18T12:21:39;30.80;61.00
19755;DHT22;10036;47.812;9.274;2022-07-18T12:24:30;30.70;61.00
19755;DHT22;10036;47.812;9.274;2022-07-18T12:27:08;30.70;63.40
19755;DHT22;10036;47.812;9.274;2022-07-18T12:30:04;30.80;60.70
19755;DHT22;10036;47.812;9.274;2022-07-18T12:32:54;30.80;62.60
19755;DHT22;10036;47.812;9.274;2022-07-18T12:35:22;30.80;60.10
19755;DHT22;10036;47.812;9.274;2022-07-18T12:37:54;30.60;62.40
19755;DHT22;10036;47.812;9.274;2022-07-18T12:40:22;30.80;61.20
19755;DHT22;10036;47.812;9.274;2022-07-18T12:42:51;30.80;61.80
19755;DHT22;10036;47.812;9.274;2022-07-18T12:45:28;30.90;60.40
19755;DHT22;10036;47.812;9.274;2022-07-18T12:47:55;30.90;61.00
19755;DHT22;10036;47.812;9.274;2022-07-18T12:50:22;31.00;62.20
19755;DHT22;10036;47.812;9.274;2022-07-18T12:52:49;31.00;61.70
19755;DHT22;10036;47.812;9.274;2022-07-18T12:55:16;31.10;59.80
19755;DHT22;10036;47.812;9.274;2022-07-18T12:57:43;31.00;62.90
19755;DHT22;10036;47.812;9.274;2022-07-18T13:00:11;31.20;63.00
19755;DHT22;10036;47.812;9.274;2022-07-18T13:02:41;31.30;62.70
19755;DHT22;10036;47.812;9.274;2022-07-18T13:05:08;31.30;62.00
19755;DHT22;10036;47.812;9.274;2022-07-18T13:07:35;31.40;60.80
19755;DHT22;10036;47.812;9.274;2022-07-18T13:10:03;31.40;61.90
19755;DHT22;10036;47.812;9.274;2022-07-18T13:12:30;31.30;59.40
19755;DHT22;10036;47.812;9.274;2022-07-18T13:14:57;31.30;60.40
19755;DHT22;10036;47.812;9.274;2022-07-18T13:17:24;31.30;61.50
19755;DHT22;10036;47.812;9.274;2022-07-18T13:19:53;31.30;61.40
19755;DHT22;10036;47.812;9.274;2022-07-18T13:22:19;31.30;59.10
19755;DHT22;10036;47.812;9.274;2022-07-18T13:24:47;31.20;62.10
19755;DHT22;10036;47.812;9.274;2022-07-18T13:27:14;31.10;62.90
19755;DHT22;10036;47.812;9.274;2022-07-18T13:29:41;31.30;64.80
19755;DHT22;10036;47.812;9.274;2022-07-18T13:32:08;31.50;60.40
19755;DHT22;10036;47.812;9.274;2022-07-18T13:34:34;31.70;59.60
19755;DHT22;10036;47.812;9.274;2022-07-18T13:37:03;31.90;60.30
19755;DHT22;10036;47.812;9.274;2022-07-18T13:39:30;31.90;60.50
19755;DHT22;10036;47.812;9.274;2022-07-18T13:41:56;31.90;60.40
19755;DHT22;10036;47.812;9.274;2022-07-18T13:44:23;32.10;59.60
19755;DHT22;10036;47.812;9.274;2022-07-18T13:46:50;32.10;58.10
19755;DHT22;10036;47.812;9.274;2022-07-18T13:49:17;32.00;58.70
19755;DHT22;10036;47.812;9.274;2022-07-18T13:51:44;32.10;60.40
19755;DHT22;10036;47.812;9.274;2022-07-18T13:54:12;32.30;59.40
19755;DHT22;10036;47.812;9.274;2022-07-18T13:56:42;32.50;60.10
19755;DHT22;10036;47.812;9.274;2022-07-18T13:59:09;32.60;58.90
19755;DHT22;10036;47.812;9.274;2022-07-18T14:01:36;32.70;59.30
19755;DHT22;10036;47.812;9.274;2022-07-18T14:04:03;33.00;59.10
19755;DHT22;10036;47.812;9.274;2022-07-18T14:06:30;33.10;58.40
19755;DHT22;10036;47.812;9.274;2022-07-18T14:08:57;33.20;59.30
19755;DHT22;10036;47.812;9.274;2022-07-18T14:11:25;33.30;58.90
19755;DHT22;10036;47.812;9.274;2022-07-18T14:13:52;33.50;57.80
19755;DHT22;10036;47.812;9.274;2022-07-18T14:16:19;33.60;58.30
19755;DHT22;10036;47.812;9.274;2022-07-18T14:18:46;33.80;58.60
19755;DHT22;10036;47.812;9.274;2022-07-18T14:21:13;33.90;58.40
19755;DHT22;10036;47.812;9.274;2022-07-18T14:23:40;34.10;57.40
19755;DHT22;10036;47.812;9.274;2022-07-18T14:26:07;34.40;56.70
19755;DHT22;10036;47.812;9.274;2022-07-18T14:28:35;34.30;56.60
19755;DHT22;10036;47.812;9.274;2022-07-18T14:31:02;34.20;57.30
19755;DHT22;10036;47.812;9.274;2022-07-18T14:33:30;34.30;57.60
19755;DHT22;10036;47.812;9.274;2022-07-18T14:35:57;34.70;57.90
19755;DHT22;10036;47.812;9.274;2022-07-18T14:38:24;34.70;57.80
19755;DHT22;10036;47.812;9.274;2022-07-18T14:40:51;34.70;56.80
19755;DHT22;10036;47.812;9.274;2022-07-18T14:43:18;35.00;56.50
19755;DHT22;10036;47.812;9.274;2022-07-18T14:45:46;35.10;56.50
19755;DHT22;10036;47.812;9.274;2022-07-18T14:48:14;35.00;56.90
19755;DHT22;10036;47.812;9.274;2022-07-18T14:50:41;35.10;57.10
19755;DHT22;10036;47.812;9.274;2022-07-18T14:53:08;35.10;57.20
19755;DHT22;10036;47.812;9.274;2022-07-18T14:55:35;35.10;56.20
19755;DHT22;10036;47.812;9.274;2022-07-18T14:58:02;35.20;56.80
19755;DHT22;10036;47.812;9.274;2022-07-18T15:00:29;35.40;55.50
19755;DHT22;10036;47.812;9.274;2022-07-18T15:02:57;35.30;56.50
19755;DHT22;10036;47.812;9.274;2022-07-18T15:05:24;35.30;57.50
19755;DHT22;10036;47.812;9.274;2022-07-18T15:07:51;35.50;57.00
19755;DHT22;10036;47.812;9.274;2022-07-18T15:10:18;35.50;56.00
19755;DHT22;10036;47.812;9.274;2022-07-18T15:12:45;35.20;56.20
19755;DHT22;10036;47.812;9.274;2022-07-18T15:15:12;35.10;56.30
19755;DHT22;10036;47.812;9.274;2022-07-18T15:17:39;34.70;55.70
19755;DHT22;10036;47.812;9.274;2022-07-18T15:20:09;34.90;55.50
19755;DHT22;10036;47.812;9.274;2022-07-18T15:22:36;34.80;55.90
19755;DHT22;10036;47.812;9.274;2022-07-18T15:25:04;35.00;54.50
19755;DHT22;10036;47.812;9.274;2022-07-18T15:27:31;35.00;55.50
19755;DHT22;10036;47.812;9.274;2022-07-18T15:29:58;35.10;56.00
19755;DHT22;10036;47.812;9.274;2022-07-18T15:32:25;35.30;55.60
19755;DHT22;10036;47.812;9.274;2022-07-18T15:34:52;35.30;54.70
19755;DHT22;10036;47.812;9.274;2022-07-18T15:37:20;35.20;55.40
19755;DHT22;10036;47.812;9.274;2022-07-18T15:39:47;35.20;54.90
19755;DHT22;10036;47.812;9.274;2022-07-18T15:42:14;34.90;54.90
19755;DHT22;10036;47.812;9.274;2022-07-18T15:44:41;35.00;55.60